Time;durP1;ratioP1;P1;durP2;ratioP2;P2;SDS_P1;SDS_P2;PMS_P1;PMS_P2;Temp;Humidity;BMP_temperature;BMP_pressure;BME280_temperature;BME280_humidity;BME280_pressure;Samples;Min_cycle;Max_cycle;Signal;HPM_P1;HPM_P2
2022/01/22 00:00:39;;;;;;;;;6.75;6.00;;;;;21.35;32.91;103308.81;5055015;28;51878;-50
2022/01/22 00:03:04;;;;;;;;;8.50;5.00;;;;;21.35;32.62;103310.72;5064194;28;51066;-54
2022/01/22 00:05:30;;;;;;;;;6.25;4.50;;;;;21.33;32.99;103308.13;5074634;28;51167;-51
2022/01/22 00:07:55;;;;;;;;;5.25;5.00;;;;;21.31;32.67;103313.81;5074578;28;51177;-55
2022/01/22 00:10:23;;;;;;;;;6.00;5.50;;;;;21.30;32.72;103312.09;5069217;28;51271;-54
2022/01/22 00:15:18;;;;;;;;;8.25;6.50;;;;;21.27;33.03;103300.56;5074407;28;51212;-52
2022/01/22 00:17:46;;;;;;;;;4.50;4.00;;;;;21.26;32.88;103296.94;5074702;28;51217;-54
2022/01/22 00:20:12;;;;;;;;;6.00;6.00;;;;;21.25;33.12;103292.41;5075145;27;51948;-53
2022/01/22 00:22:38;;;;;;;;;7.00;5.00;;;;;21.25;32.65;103295.16;5077323;27;51199;-54
2022/01/22 00:25:08;;;;;;;;;6.00;6.00;;;;;21.24;33.05;103292.56;5078753;27;51086;-54
2022/01/22 00:27:36;;;;;;;;;5.25;4.75;;;;;21.21;33.11;103296.53;5085567;27;51227;-53
2022/01/22 00:30:04;;;;;;;;;8.00;7.00;;;;;21.19;32.55;103295.84;5078144;27;50979;-51
2022/01/22 00:32:29;;;;;;;;;6.50;5.50;;;;;21.18;33.04;103283.09;5077375;27;50989;-55
2022/01/22 00:34:54;;;;;;;;;7.00;6.25;;;;;21.18;32.78;103287.75;5064033;28;51609;-54
2022/01/22 00:37:20;;;;;;;;;8.00;6.75;;;;;21.15;32.66;103277.91;5059112;28;51257;-53
2022/01/22 00:39:45;;;;;;;;;7.75;6.00;;;;;21.14;32.71;103278.94;5058573;28;52127;-53
2022/01/22 00:42:13;;;;;;;;;6.00;5.00;;;;;21.12;32.57;103274.63;5059825;28;50982;-55
2022/01/22 00:44:39;;;;;;;;;10.00;8.00;;;;;21.11;32.94;103279.28;5058630;28;51118;-54
2022/01/22 00:47:05;;;;;;;;;8.25;7.00;;;;;21.11;32.70;103286.69;5076749;28;51198;-52
2022/01/22 00:49:30;;;;;;;;;6.25;5.25;;;;;21.09;33.22;103284.09;5076115;28;51492;-54
2022/01/22 00:51:56;;;;;;;;;6.75;6.75;;;;;21.08;32.94;103287.91;5077438;28;51145;-52
2022/01/22 00:54:22;;;;;;;;;6.75;6.25;;;;;21.08;32.81;103281.53;5077703;28;51411;-53
2022/01/22 00:56:48;;;;;;;;;4.75;4.50;;;;;21.05;33.19;103285.50;5076296;28;51132;-53
2022/01/22 00:59:13;;;;;;;;;6.75;6.00;;;;;21.04;32.88;103287.34;5077650;28;51877;-51
2022/01/22 01:01:39;;;;;;;;;5.75;5.75;;;;;21.03;32.94;103284.75;5070106;28;50994;-53
2022/01/22 01:04:08;;;;;;;;;6.00;6.00;;;;;21.03;32.76;103290.28;5058199;28;51215;-53
2022/01/22 01:06:33;;;;;;;;;5.75;5.75;;;;;21.02;32.74;103280.28;5065162;28;51322;-54
2022/01/22 01:09:00;;;;;;;;;6.00;6.00;;;;;21.01;32.77;103286.81;5068412;28;51162;-54
2022/01/22 01:11:27;;;;;;;;;6.50;4.00;;;;;21.00;32.69;103285.09;5063841;28;51294;-54
2022/01/22 01:13:57;;;;;;;;;6.00;5.50;;;;;21.00;32.75;103282.34;5060231;27;51175;-52
2022/01/22 01:32:59;;;;;;;;;4.50;3.50;;;;;20.89;33.15;103269.75;5057658;28;52442;-55
2022/01/22 01:35:26;;;;;;;;;5.50;4.25;;;;;20.88;32.83;103276.28;5069412;28;51104;-53
2022/01/22 01:37:54;;;;;;;;;5.75;5.00;;;;;20.87;32.97;103279.22;5077663;28;51024;-54
2022/01/22 01:40:22;;;;;;;;;4.50;4.00;;;;;20.86;32.75;103270.09;5066641;28;51030;-54
2022/01/22 01:45:25;;;;;;;;;6.00;5.75;;;;;20.85;33.29;103273.03;5077533;27;51135;-53
2022/01/22 01:47:56;;;;;;;;;5.00;5.00;;;;;20.83;32.93;103270.41;5058525;28;51097;-54
2022/01/22 01:50:21;;;;;;;;;5.25;4.00;;;;;20.83;33.35;103266.78;5057276;28;52060;-52
2022/01/22 01:52:53;;;;;;;;;5.25;5.25;;;;;20.83;33.01;103275.06;5058804;28;50873;-53
2022/01/22 01:55:32;;;;;;;;;7.00;5.75;;;;;20.81;32.96;103263.34;5067940;28;51166;-55
2022/01/22 01:57:57;;;;;;;;;7.25;6.00;;;;;20.81;33.39;103266.09;5070028;28;51013;-53
2022/01/22 02:00:25;;;;;;;;;3.00;3.00;;;;;20.78;33.27;103260.94;5057145;28;50965;-54
2022/01/22 02:02:52;;;;;;;;;5.75;4.25;;;;;20.77;33.37;103261.97;5064409;28;51151;-55
2022/01/22 02:05:21;;;;;;;;;5.50;4.75;;;;;20.76;32.97;103272.13;5076597;28;51048;-54
2022/01/22 02:07:48;;;;;;;;;6.75;6.50;;;;;20.75;33.37;103270.41;5077173;27;51363;-55
2022/01/22 02:10:21;;;;;;;;;4.75;4.75;;;;;20.75;33.27;103276.75;5075152;28;51103;-53
2022/01/22 02:26:04;;;;;;;;;6.50;4.00;;;;;20.70;33.08;103256.25;5060635;27;51086;-53
2022/01/22 02:28:29;;;;;;;;;2.75;2.75;;;;;20.68;33.00;103253.66;5058038;27;51280;-54
2022/01/22 02:31:04;;;;;;;;;5.00;4.75;;;;;20.67;33.02;103262.94;5057041;28;51741;-51
2022/01/22 02:33:42;;;;;;;;;3.50;2.75;;;;;20.66;33.49;103266.75;5074815;28;51167;-55
2022/01/22 02:39:09;;;;;;;;;3.00;2.75;;;;;20.66;33.55;103263.13;5075397;28;51058;-51
2022/01/22 02:41:30;;;;;;;;;4.00;4.00;;;;;20.65;33.03;103265.00;5075459;27;51816;-52
2022/01/22 02:43:56;;;;;;;;;6.50;4.75;;;;;20.64;33.40;103259.69;5075322;28;51078;-53
2022/01/22 02:46:26;;;;;;;;;3.00;3.00;;;;;20.62;33.03;103254.31;5076360;28;51142;-54
2022/01/22 02:48:57;;;;;;;;;4.00;3.00;;;;;20.63;33.33;103258.78;5076211;28;51159;-54
2022/01/22 02:51:23;;;;;;;;;4.00;4.00;;;;;20.62;33.38;103248.78;5074574;28;52911;-54
2022/01/22 02:53:53;;;;;;;;;4.50;4.50;;;;;20.61;33.12;103255.34;5058198;28;51207;-54
2022/01/22 02:56:19;;;;;;;;;5.00;4.25;;;;;20.61;33.04;103247.06;5069893;28;51337;-55
2022/01/22 02:58:45;;;;;;;;;3.00;3.00;;;;;20.60;33.08;103239.84;5074629;28;51093;-53
2022/01/22 03:01:15;;;;;;;;;2.75;2.75;;;;;20.60;33.20;103238.97;5074478;28;50962;-53
2022/01/22 03:03:40;;;;;;;;;6.00;6.00;;;;;20.59;33.27;103254.66;5075936;28;51270;-51
2022/01/22 03:06:05;;;;;;;;;7.25;5.00;;;;;20.59;33.31;103251.91;5076172;28;51044;-54
2022/01/22 03:08:32;;;;;;;;;5.00;4.00;;;;;20.58;33.59;103241.03;5075747;28;51057;-53
2022/01/22 03:10:57;;;;;;;;;4.50;3.25;;;;;20.58;33.43;103239.16;5075918;27;51826;-56
2022/01/22 03:16:15;;;;;;;;;3.25;3.00;;;;;20.56;33.20;103235.72;5075930;28;51199;-53
2022/01/22 03:18:52;;;;;;;;;4.75;3.75;;;;;20.54;33.33;103246.03;5074213;28;51417;-56
2022/01/22 03:29:20;;;;;;;;;3.75;3.00;;;;;20.52;33.54;103248.06;5057316;28;51080;-52
2022/01/22 03:31:46;;;;;;;;;5.75;3.00;;;;;20.51;33.40;103240.84;5057051;28;51088;-50
2022/01/22 03:34:13;;;;;;;;;3.25;3.25;;;;;20.49;33.29;103245.66;5055498;28;51260;-53
2022/01/22 03:36:39;;;;;;;;;3.25;2.25;;;;;20.50;33.48;103244.63;5065795;28;51120;-49
2022/01/22 03:39:08;;;;;;;;;4.00;4.00;;;;;20.49;33.17;103242.03;5070496;28;51071;-53
2022/01/22 03:41:35;;;;;;;;;4.00;3.25;;;;;20.47;33.35;103250.47;5073356;28;51138;-53
2022/01/22 03:44:00;;;;;;;;;4.25;4.00;;;;;20.47;33.20;103258.72;5060661;28;51381;-53
2022/01/22 03:46:26;;;;;;;;;5.25;5.00;;;;;20.45;33.63;103261.66;5056950;28;51494;-53
2022/01/22 03:48:52;;;;;;;;;4.25;3.25;;;;;20.45;33.08;103255.28;5055975;28;51112;-51
2022/01/22 03:51:18;;;;;;;;;3.00;3.00;;;;;20.44;33.53;103256.31;5055478;28;53189;-53
2022/01/22 03:53:44;;;;;;;;;4.25;3.00;;;;;20.45;33.39;103260.78;5055784;28;51116;-52
2022/01/22 03:56:11;;;;;;;;;4.50;4.25;;;;;20.42;33.22;103253.69;5055771;28;51116;-53
2022/01/22 03:58:41;;;;;;;;;3.00;3.00;;;;;20.42;33.55;103256.44;5057086;27;51070;-52
2022/01/22 04:04:06;;;;;;;;;5.25;5.00;;;;;20.41;33.51;103251.06;5074807;28;51016;-52
2022/01/22 04:07:05;;;;;;;;;4.00;4.00;;;;;20.40;33.52;103257.59;5070177;28;51161;-51
2022/01/22 04:09:23;;;;;;;;;6.00;3.00;;;;;20.39;33.54;103254.00;5056676;28;51128;-48
2022/01/22 04:11:48;;;;;;;;;4.50;3.50;;;;;20.39;33.42;103254.00;5067787;27;51767;-51
2022/01/22 04:14:22;;;;;;;;;4.00;4.00;;;;;20.38;33.33;103252.28;5075222;27;51131;-52
2022/01/22 04:25:21;;;;;;;;;3.50;3.00;;;;;20.35;33.37;103243.50;5056752;28;51274;-54
2022/01/22 04:27:48;;;;;;;;;3.75;3.00;;;;;20.34;33.52;103236.25;5065500;27;51378;-52
2022/01/22 04:30:13;;;;;;;;;3.75;3.25;;;;;20.33;33.45;103246.41;5070514;28;51429;-48
2022/01/22 04:32:38;;;;;;;;;3.50;2.00;;;;;20.32;33.46;103239.19;5074473;28;51087;-52
2022/01/22 04:35:04;;;;;;;;;4.00;4.00;;;;;20.33;33.24;103240.03;5066150;28;50998;-49
2022/01/22 04:37:30;;;;;;;;;2.75;2.75;;;;;20.34;33.83;103244.53;5058173;28;51011;-52
2022/01/22 04:39:55;;;;;;;;;4.25;3.00;;;;;20.33;33.56;103240.03;5073472;28;51088;-51
2022/01/22 04:42:21;;;;;;;;;3.75;3.75;;;;;20.33;33.42;103242.78;5074733;28;51974;-52
2022/01/22 04:45:05;;;;;;;;;3.25;3.25;;;;;20.32;33.28;103247.44;5066377;28;51027;-51
2022/01/22 04:47:45;;;;;;;;;4.50;3.75;;;;;20.31;33.75;103245.69;5065358;28;51185;-53
2022/01/22 04:55:40;;;;;;;;;5.75;5.75;;;;;20.29;33.40;103244.13;5054847;28;51173;-50
2022/01/22 04:58:06;;;;;;;;;3.00;2.00;;;;;20.28;33.51;103250.66;5057226;28;51138;-52
2022/01/22 05:00:34;;;;;;;;;5.00;3.75;;;;;20.27;33.56;103251.69;5071180;28;51288;-50
2022/01/22 05:03:01;;;;;;;;;5.00;5.00;;;;;20.27;33.37;103247.06;5074355;28;51935;-51
2022/01/22 05:05:27;;;;;;;;;3.50;3.00;;;;;20.26;33.37;103258.22;5067343;28;51412;-53
2022/01/22 05:07:53;;;;;;;;;3.00;3.00;;;;;20.25;33.68;103254.63;5058069;28;51190;-49
2022/01/22 05:10:19;;;;;;;;;5.50;4.00;;;;;20.25;33.50;103256.50;5070297;28;50938;-51
2022/01/22 05:12:45;;;;;;;;;3.50;3.00;;;;;20.24;33.49;103252.03;5077856;28;50966;-51
2022/01/22 05:15:11;;;;;;;;;3.00;3.00;;;;;20.23;33.71;103253.06;5060621;28;51252;-49
2022/01/22 05:17:40;;;;;;;;;6.00;5.00;;;;;20.22;33.61;103254.94;5058175;28;51209;-52
2022/01/22 05:25:37;;;;;;;;;3.25;3.00;;;;;20.21;33.48;103255.09;5058165;28;51223;-53
2022/01/22 05:38:23;;;;;;;;;3.00;3.00;;;;;20.16;33.74;103264.69;5077712;28;51172;-53
2022/01/22 05:40:49;;;;;;;;;4.25;4.25;;;;;20.16;33.68;103258.34;5077748;28;51139;-53
2022/01/22 05:43:14;;;;;;;;;3.75;3.50;;;;;20.14;33.59;103255.75;5060909;28;51057;-50
2022/01/22 05:45:41;;;;;;;;;4.00;4.00;;;;;20.13;33.91;103262.28;5069464;28;51040;-53
2022/01/22 05:48:06;;;;;;;;;5.50;5.25;;;;;20.14;33.75;103260.41;5062769;28;51057;-53
2022/01/22 05:50:46;;;;;;;;;6.00;5.75;;;;;20.13;33.74;103255.91;5058706;28;51041;-53
2022/01/22 05:53:26;;;;;;;;;3.00;3.00;;;;;20.12;33.51;103254.19;5077083;27;51064;-52
2022/01/22 06:01:15;;;;;;;;;3.50;3.50;;;;;20.12;33.85;103267.94;5063505;28;51151;-52
2022/01/22 06:03:41;;;;;;;;;7.00;5.75;;;;;20.11;33.41;103268.94;5056598;28;51134;-49
2022/01/22 06:06:06;;;;;;;;;5.50;4.75;;;;;20.08;33.42;103278.41;5057147;28;51114;-54
2022/01/22 06:08:38;;;;;;;;;4.00;3.75;;;;;20.08;33.95;103278.41;5068243;28;51129;-54
2022/01/22 06:11:09;;;;;;;;;5.50;2.75;;;;;20.08;33.72;103281.16;5069038;27;51263;-51
2022/01/22 06:13:44;;;;;;;;;6.25;4.75;;;;;20.07;33.53;103279.44;5058342;27;51564;-53
2022/01/22 06:16:14;;;;;;;;;5.00;4.00;;;;;20.07;33.62;103282.19;5073106;28;51558;-51
2022/01/22 06:18:40;;;;;;;;;6.00;5.00;;;;;20.06;33.88;103277.69;5055808;28;51228;-53
2022/01/22 06:21:08;;;;;;;;;3.25;3.25;;;;;20.06;33.71;103271.34;5064998;28;51046;-49
2022/01/22 06:23:34;;;;;;;;;5.00;5.00;;;;;20.04;33.45;103276.16;5058188;28;52790;-54
2022/01/22 06:26:00;;;;;;;;;5.00;4.00;;;;;20.05;33.76;103272.38;5061328;27;51361;-54
2022/01/22 06:28:29;;;;;;;;;5.00;5.00;;;;;20.04;33.51;103266.00;5061798;27;51279;-53
2022/01/22 06:30:55;;;;;;;;;2.75;2.75;;;;;20.04;33.82;103278.91;5058933;28;51091;-52
2022/01/22 06:33:21;;;;;;;;;5.25;3.00;;;;;20.02;33.55;103273.56;5072334;28;51152;-51
2022/01/22 06:35:46;;;;;;;;;5.00;4.25;;;;;20.02;33.72;103270.81;5056804;28;51140;-53
2022/01/22 06:38:13;;;;;;;;;9.25;5.00;;;;;20.02;33.68;103265.31;5071828;28;51156;-53
2022/01/22 06:43:04;;;;;;;;;3.00;3.00;;;;;20.01;33.75;103266.34;5057921;28;51140;-53
2022/01/22 06:45:30;;;;;;;;;6.00;4.75;;;;;20.01;33.85;103273.69;5062297;28;51256;-53
2022/01/22 06:47:56;;;;;;;;;3.75;3.75;;;;;20.01;33.60;103276.44;5074630;28;51147;-54
2022/01/22 06:50:22;;;;;;;;;6.50;4.75;;;;;20.02;33.75;103287.31;5075821;28;51028;-51
2022/01/22 06:52:53;;;;;;;;;6.00;5.00;;;;;20.01;33.68;103293.84;5064710;28;51116;-52
2022/01/22 06:55:19;;;;;;;;;8.75;7.00;;;;;20.02;33.51;103283.72;5073442;28;51123;-54
2022/01/22 06:57:45;;;;;;;;;12.00;10.75;;;;;20.01;33.34;103292.94;5076063;28;50969;-54
2022/01/22 07:00:11;;;;;;;;;8.50;6.50;;;;;20.00;34.01;103289.34;5074562;28;51176;-55
2022/01/22 07:02:36;;;;;;;;;9.50;8.00;;;;;20.01;33.50;103285.59;5074704;27;51348;-53
2022/01/22 07:05:02;;;;;;;;;8.25;7.00;;;;;20.05;33.21;103289.72;5073299;28;51116;-54
2022/01/22 07:07:27;;;;;;;;;8.25;7.75;;;;;20.11;33.60;103289.09;5070542;28;51436;-53
2022/01/22 07:09:52;;;;;;;;;6.75;5.25;;;;;20.21;33.64;103288.09;5069651;28;51386;-51
2022/01/22 07:12:18;;;;;;;;;5.75;4.50;;;;;20.30;33.44;103284.38;5074402;27;51029;-55
2022/01/22 07:14:45;;;;;;;;;6.50;5.50;;;;;20.36;33.41;103295.63;5068718;28;51070;-55
2022/01/22 07:17:12;;;;;;;;;7.25;4.25;;;;;20.44;33.59;103294.84;5056126;28;51043;-52
2022/01/22 07:19:40;;;;;;;;;7.25;5.75;;;;;20.50;34.22;103294.19;5055939;28;51165;-53
2022/01/22 07:22:20;;;;;;;;;5.00;4.75;;;;;20.58;34.22;103285.97;5057071;28;51882;-53
2022/01/22 07:24:45;;;;;;;;;8.00;4.75;;;;;20.66;34.52;103293.41;5060069;28;51482;-52
2022/01/22 07:27:11;;;;;;;;;5.00;4.50;;;;;20.74;34.22;103294.31;5066870;27;50936;-51
2022/01/22 07:29:36;;;;;;;;;5.75;3.75;;;;;20.84;34.62;103301.56;5075646;28;51271;-54
2022/01/22 07:32:04;;;;;;;;;5.00;5.00;;;;;20.91;33.99;103292.47;5075273;28;51962;-53
2022/01/22 07:34:30;;;;;;;;;5.25;5.25;;;;;21.02;34.37;103303.19;5056996;28;51391;-53
2022/01/22 07:36:56;;;;;;;;;5.50;5.00;;;;;21.10;34.48;103307.88;5066986;28;51307;-54
2022/01/22 07:39:21;;;;;;;;;7.00;5.75;;;;;21.18;34.60;103305.16;5065042;27;51101;-54
2022/01/22 07:41:46;;;;;;;;;5.00;5.00;;;;;21.25;34.34;103303.44;5073879;28;51117;-52
2022/01/22 07:44:12;;;;;;;;;6.00;6.00;;;;;21.31;34.44;103308.31;5060113;28;51100;-54
2022/01/22 07:46:37;;;;;;;;;5.00;5.00;;;;;21.39;33.92;103307.47;5055676;28;51042;-53
2022/01/22 07:49:05;;;;;;;;;5.00;5.00;;;;;21.45;34.24;103314.19;5068248;28;51297;-53
2022/01/22 07:51:31;;;;;;;;;7.00;5.75;;;;;21.52;33.77;103315.25;5068207;28;52649;-53
2022/01/22 07:53:56;;;;;;;;;5.50;5.50;;;;;21.57;33.95;103316.47;5067077;28;51090;-54
2022/01/22 07:56:22;;;;;;;;;10.00;6.25;;;;;21.64;33.31;103316.63;5074422;28;51063;-53
2022/01/22 07:58:47;;;;;;;;;8.00;6.50;;;;;21.69;33.33;103318.91;5075059;28;51051;-56
2022/01/22 08:01:12;;;;;;;;;7.75;6.75;;;;;21.74;33.01;103309.06;5056031;28;50985;-55
2022/01/22 08:03:37;;;;;;;;;9.50;8.75;;;;;21.75;32.51;103309.91;5055086;28;51026;-56
2022/01/22 08:06:03;;;;;;;;;7.50;7.25;;;;;21.78;32.18;103317.84;5066263;28;51178;-53
2022/01/22 08:08:28;;;;;;;;;8.75;5.75;;;;;21.80;32.25;103322.19;5064166;28;51230;-53
2022/01/22 08:10:54;;;;;;;;;8.75;7.75;;;;;21.85;32.00;103321.66;5055476;28;52126;-51
2022/01/22 08:13:21;;;;;;;;;8.50;8.00;;;;;21.88;31.90;103324.94;5074146;28;51034;-55
2022/01/22 08:15:46;;;;;;;;;7.25;7.25;;;;;21.93;31.87;103326.31;5074919;28;51191;-54
2022/01/22 08:18:12;;;;;;;;;7.00;7.00;;;;;21.97;32.03;103330.44;5065372;28;50971;-50
2022/01/22 08:20:38;;;;;;;;;9.75;6.75;;;;;21.99;31.67;103332.03;5064660;28;51092;-52
2022/01/22 08:23:03;;;;;;;;;6.75;6.75;;;;;22.02;31.63;103333.56;5073044;27;51086;-53
2022/01/22 08:25:31;;;;;;;;;8.50;7.25;;;;;22.07;31.56;103332.03;5075240;28;51091;-55
2022/01/22 08:30:25;;;;;;;;;6.00;6.00;;;;;22.18;31.66;103330.81;5057061;28;51574;-53
2022/01/22 08:38:06;;;;;;;;;8.00;7.00;;;;;22.36;31.73;103338.91;5055625;28;51112;-54
2022/01/22 08:40:31;;;;;;;;;4.25;4.25;;;;;22.42;31.63;103340.97;5063675;28;52514;-52
2022/01/22 08:42:57;;;;;;;;;5.00;3.50;;;;;22.48;31.15;103343.88;5062284;27;51068;-52
2022/01/22 08:45:22;;;;;;;;;4.00;3.50;;;;;22.54;31.61;103344.22;5059756;28;51075;-51
2022/01/22 08:47:47;;;;;;;;;6.50;5.75;;;;;22.58;31.56;103349.22;5073897;28;51210;-52
2022/01/22 08:50:13;;;;;;;;;5.25;3.50;;;;;22.64;31.11;103353.19;5061138;27;51094;-54
2022/01/22 08:52:38;;;;;;;;;6.75;5.00;;;;;22.67;31.54;103352.81;5070637;28;51348;-52
2022/01/22 08:55:05;;;;;;;;;4.00;4.00;;;;;22.72;31.67;103355.94;5077858;28;51164;-57
2022/01/22 08:57:31;;;;;;;;;3.25;3.25;;;;;22.77;31.66;103353.47;5075885;27;51338;-56
2022/01/22 08:59:56;;;;;;;;;4.75;4.75;;;;;22.82;31.89;103353.78;5059030;28;51069;-55
2022/01/22 09:02:22;;;;;;;;;4.75;4.50;;;;;22.86;31.27;103360.75;5063446;28;51125;-54
2022/01/22 09:04:48;;;;;;;;;2.50;2.00;;;;;22.91;31.69;103357.44;5077498;28;51133;-53
2022/01/22 09:07:13;;;;;;;;;3.75;3.75;;;;;22.95;31.68;103373.50;5065376;27;51112;-51
2022/01/22 09:09:39;;;;;;;;;4.00;4.00;;;;;22.99;32.01;103368.47;5063661;28;51699;-57
2022/01/22 09:12:06;;;;;;;;;5.00;4.75;;;;;23.03;31.37;103362.41;5062705;28;51244;-56
2022/01/22 09:14:32;;;;;;;;;4.75;4.00;;;;;23.08;31.26;103372.06;5057768;28;51237;-56
2022/01/22 09:16:59;;;;;;;;;5.00;4.75;;;;;23.11;31.53;103374.44;5058703;28;51283;-55
2022/01/22 09:19:32;;;;;;;;;4.50;4.50;;;;;23.15;31.19;103367.53;5066404;27;51871;-54
2022/01/22 09:21:57;;;;;;;;;4.00;3.00;;;;;23.20;31.35;103365.94;5068483;28;50974;-55
2022/01/22 09:24:23;;;;;;;;;3.00;3.00;;;;;23.23;31.78;103368.34;5069219;28;51442;-56
2022/01/22 09:26:48;;;;;;;;;5.50;2.25;;;;;23.27;31.72;103372.50;5083459;27;51045;-54
2022/01/22 09:29:15;;;;;;;;;4.00;4.00;;;;;23.31;31.30;103372.97;5072424;27;51804;-55
2022/01/22 09:31:41;;;;;;;;;3.00;3.00;;;;;23.36;31.68;103375.22;5073442;28;51462;-54
2022/01/22 09:34:06;;;;;;;;;5.75;4.25;;;;;23.39;31.74;103381.25;5078110;27;51124;-53
2022/01/22 09:36:32;;;;;;;;;3.00;3.00;;;;;23.44;31.32;103384.31;5064124;28;51097;-56
2022/01/22 09:38:57;;;;;;;;;5.25;3.75;;;;;23.47;31.23;103389.50;5065558;28;52084;-53
2022/01/22 09:41:25;;;;;;;;;4.00;4.00;;;;;23.51;31.32;103393.63;5075379;28;51050;-54
2022/01/22 09:43:51;;;;;;;;;4.75;4.00;;;;;23.55;31.43;103386.69;5077125;28;51106;-55
2022/01/22 09:46:16;;;;;;;;;4.25;2.75;;;;;23.58;31.27;103389.13;5060843;28;51288;-54
2022/01/22 09:48:43;;;;;;;;;5.75;4.00;;;;;23.62;31.25;103386.84;5074519;28;51015;-56
2022/01/22 09:51:10;;;;;;;;;5.00;4.00;;;;;23.66;31.47;103384.59;5076228;28;51203;-56
2022/01/22 09:53:36;;;;;;;;;5.00;3.50;;;;;23.69;31.59;103384.22;5070746;28;50906;-54
2022/01/22 09:56:02;;;;;;;;;2.00;2.00;;;;;23.72;31.27;103387.47;5055612;28;51094;-55
2022/01/22 09:58:27;;;;;;;;;3.00;3.00;;;;;23.78;31.34;103396.94;5056920;28;51831;-53
2022/01/22 10:00:52;;;;;;;;;3.00;3.00;;;;;23.81;31.26;103393.81;5060644;28;51088;-52
2022/01/22 10:03:20;;;;;;;;;2.75;2.75;;;;;23.85;31.75;103386.84;5061740;27;51430;-52
2022/01/22 10:05:46;;;;;;;;;1.50;1.50;;;;;23.88;31.51;103398.44;5057602;28;51314;-51
2022/01/22 10:08:27;;;;;;;;;2.25;2.25;;;;;23.93;31.36;103399.78;5076426;28;52484;-55
2022/01/22 10:10:53;;;;;;;;;3.00;3.00;;;;;23.96;31.52;103399.41;5068389;28;51448;-59
2022/01/22 10:13:50;;;;;;;;;4.25;3.00;;;;;23.99;31.52;103397.13;5062857;27;51058;-54
2022/01/22 10:16:25;;;;;;;;;3.75;3.25;;;;;24.04;31.71;103397.44;5057794;28;51200;-53
2022/01/22 10:19:09;;;;;;;;;4.50;4.25;;;;;24.06;31.69;103405.56;5056146;28;51127;-55
2022/01/22 10:21:36;;;;;;;;;4.00;4.00;;;;;24.04;31.53;103399.34;5072440;28;51274;-54
2022/01/22 10:24:31;;;;;;;;;4.25;4.00;;;;;24.01;31.40;103405.25;5057431;28;51216;-55
2022/01/22 10:29:58;;;;;;;;;3.00;3.00;;;;;23.89;31.52;103405.69;5056151;28;51657;-54
2022/01/22 10:32:51;;;;;;;;;4.00;4.00;;;;;23.85;31.72;103418.16;5070781;28;51279;-54
2022/01/22 10:35:16;;;;;;;;;5.25;2.25;;;;;23.79;31.70;103416.13;5071810;28;50963;-53
2022/01/22 10:37:42;;;;;;;;;3.50;3.50;;;;;23.74;31.75;103410.28;5068792;28;51056;-53
2022/01/22 10:40:27;;;;;;;;;5.50;4.00;;;;;23.69;32.13;103411.88;5067491;28;51017;-54
2022/01/22 10:43:13;;;;;;;;;3.00;3.00;;;;;23.64;31.86;103412.41;5055947;28;51091;-53
2022/01/22 10:45:42;;;;;;;;;5.25;5.00;;;;;23.60;31.94;103411.94;5066303;28;51216;-51
2022/01/22 10:48:21;;;;;;;;;5.00;5.00;;;;;23.62;31.74;103397.91;5064994;27;51219;-52
2022/01/22 10:51:18;;;;;;;;;3.00;2.50;;;;;23.66;31.62;103410.34;5067002;28;52044;-53
2022/01/22 10:54:02;;;;;;;;;6.50;4.00;;;;;23.71;31.68;103405.13;5075006;28;51362;-50
2022/01/22 10:56:30;;;;;;;;;5.25;5.25;;;;;23.76;31.61;103399.00;5064768;28;51224;-54
2022/01/22 10:59:07;;;;;;;;;6.00;6.00;;;;;23.80;31.85;103392.09;5075010;28;51208;-51
2022/01/22 11:01:38;;;;;;;;;9.75;7.00;;;;;23.85;31.71;103396.00;5072701;27;51037;-54
2022/01/22 11:04:13;;;;;;;;;9.00;6.00;;;;;23.87;31.79;103391.19;5063939;28;51510;-50
2022/01/22 11:06:45;;;;;;;;;8.50;6.50;;;;;23.91;31.90;103388.91;5065673;28;51205;-53
2022/01/22 11:09:11;;;;;;;;;9.50;6.25;;;;;23.92;31.68;103392.53;5056772;28;51373;-54
2022/01/22 11:11:40;;;;;;;;;7.50;7.50;;;;;23.94;31.90;103393.19;5055451;28;51723;-53
2022/01/22 11:14:08;;;;;;;;;8.75;8.00;;;;;23.96;32.19;103388.31;5055657;28;51174;-52
2022/01/22 11:16:36;;;;;;;;;9.00;8.00;;;;;23.97;31.90;103390.03;5072008;28;51254;-50
2022/01/22 11:19:02;;;;;;;;;10.50;6.50;;;;;23.98;32.64;103395.44;5057707;28;51256;-53
2022/01/22 11:21:28;;;;;;;;;7.75;6.75;;;;;24.01;32.80;103391.41;5074605;27;51703;-53
2022/01/22 11:23:54;;;;;;;;;8.50;7.50;;;;;24.01;32.33;103383.97;5074612;28;51223;-51
2022/01/22 11:26:20;;;;;;;;;8.25;6.50;;;;;24.03;32.62;103381.88;5072187;27;51265;-53
2022/01/22 11:28:46;;;;;;;;;9.75;5.25;;;;;24.03;32.41;103379.09;5066357;28;51151;-54
2022/01/22 11:31:15;;;;;;;;;6.25;5.25;;;;;24.00;32.56;103381.38;5067234;27;50911;-55
2022/01/22 11:33:44;;;;;;;;;7.00;5.50;;;;;23.97;32.41;103381.75;5055931;28;51063;-53
2022/01/22 11:36:17;;;;;;;;;6.25;5.25;;;;;23.90;32.54;103374.19;5056509;28;51168;-52
2022/01/22 11:38:58;;;;;;;;;8.50;6.75;;;;;23.86;32.47;103372.84;5055022;28;51190;-51
2022/01/22 11:41:24;;;;;;;;;9.25;7.00;;;;;23.80;32.38;103378.25;5067869;28;51093;-53
2022/01/22 11:44:15;;;;;;;;;6.50;6.00;;;;;23.73;32.11;103371.72;5066632;28;51479;-50
2022/01/22 11:46:52;;;;;;;;;5.75;5.00;;;;;23.67;32.17;103372.47;5056459;28;51097;-53
2022/01/22 11:49:21;;;;;;;;;8.00;5.25;;;;;23.61;32.46;103365.75;5054550;28;51141;-52
2022/01/22 11:51:50;;;;;;;;;6.00;6.00;;;;;23.57;32.19;103358.84;5057803;28;51860;-50
2022/01/22 11:54:17;;;;;;;;;6.50;5.25;;;;;23.53;32.43;103355.56;5069421;27;51391;-50
2022/01/22 11:56:52;;;;;;;;;6.50;6.00;;;;;23.49;32.44;103365.28;5054381;28;51258;-53
2022/01/22 11:59:22;;;;;;;;;6.25;5.50;;;;;23.48;32.42;103366.31;5070220;28;51263;-51
2022/01/22 12:02:04;;;;;;;;;8.00;4.00;;;;;23.50;32.13;103361.47;5060314;28;51813;-50
2022/01/22 12:04:39;;;;;;;;;4.00;4.00;;;;;23.53;31.90;103357.47;5062956;28;51315;-51
2022/01/22 12:07:04;;;;;;;;;4.25;4.25;;;;;23.56;31.80;103362.66;5058863;28;50874;-51
2022/01/22 12:15:39;;;;;;;;;19.25;18.00;;;;;23.65;30.41;103361.56;5058397;28;51128;-53
2022/01/22 12:18:07;;;;;;;;;13.75;13.75;;;;;23.56;30.53;103341.38;5061412;28;51227;-51
2022/01/22 12:23:39;;;;;;;;;10.50;9.75;;;;;23.48;30.05;103348.88;5063694;28;50965;-51
2022/01/22 12:26:05;;;;;;;;;9.75;8.50;;;;;23.49;30.07;103347.81;5065168;27;51604;-51
2022/01/22 12:28:39;;;;;;;;;9.75;8.50;;;;;23.50;30.16;103350.41;5077090;27;51195;-53
2022/01/22 12:31:09;;;;;;;;;8.50;8.50;;;;;23.52;29.66;103334.47;5064667;28;51044;-52
2022/01/22 12:33:35;;;;;;;;;11.00;10.00;;;;;23.53;29.76;103338.09;5059126;28;52189;-50
2022/01/22 12:36:13;;;;;;;;;11.25;7.25;;;;;23.54;29.94;103334.28;5059943;28;50946;-51
2022/01/22 12:38:49;;;;;;;;;7.75;7.75;;;;;23.56;30.27;103324.78;5072638;28;51132;-51
2022/01/22 12:41:47;;;;;;;;;7.00;7.00;;;;;23.58;29.72;103325.47;5061103;28;51214;-54
2022/01/22 12:44:18;;;;;;;;;9.50;6.50;;;;;23.61;30.17;103327.88;5060782;28;52910;-51
2022/01/22 12:46:44;;;;;;;;;6.75;6.75;;;;;23.64;30.12;103320.25;5065660;28;51083;-52
2022/01/22 12:49:14;;;;;;;;;7.75;7.75;;;;;23.66;29.97;103307.97;5058903;28;51245;-51
2022/01/22 12:51:40;;;;;;;;;7.50;6.25;;;;;23.69;30.54;103313.13;5059241;28;51514;-50
2022/01/22 12:54:06;;;;;;;;;8.25;7.25;;;;;23.72;30.35;103300.81;5061767;28;52224;-53
2022/01/22 12:59:07;;;;;;;;;6.00;6.00;;;;;23.77;29.88;103307.53;5073581;28;51223;-52
2022/01/22 13:01:34;;;;;;;;;6.25;4.50;;;;;23.80;30.17;103320.13;5061869;28;50990;-50
2022/01/22 13:04:04;;;;;;;;;5.00;5.00;;;;;23.83;30.41;103306.78;5061015;28;51805;-53
2022/01/22 13:06:45;;;;;;;;;6.00;6.00;;;;;23.87;30.43;103307.28;5059159;28;51293;-50
2022/01/22 13:09:11;;;;;;;;;6.00;5.00;;;;;23.87;30.53;103305.38;5070362;28;51205;-52
2022/01/22 13:11:45;;;;;;;;;5.50;5.50;;;;;23.86;30.38;103305.53;5068662;28;50887;-53
2022/01/22 13:14:11;;;;;;;;;6.50;5.25;;;;;23.85;30.32;103301.03;5061454;27;52023;-49
2022/01/22 13:16:52;;;;;;;;;5.00;5.00;;;;;23.81;30.28;103295.03;5068653;28;51031;-53
2022/01/22 13:19:19;;;;;;;;;5.50;5.50;;;;;23.78;30.59;103295.41;5062281;28;51213;-51
2022/01/22 13:21:50;;;;;;;;;3.00;3.00;;;;;23.76;30.42;103294.75;5057775;28;51134;-52